Port Essington, Canada
Current Conditions -  °F | °C
As of 8:59 PM on Saturday 20 Dec 2014 (Local Time) from CYPR Reporting Station
Light Rain Light Rain  
Wind Chill: 38°   Ceiling: 2400
Heat Index: 45°   Visibility: 6mi
Dew Point: 39°   Wind: 14mph
Humidity: 81%   Direction: 110°ESE
Pressure: 29.13"   Gusts: NA
Location:  54.15°N, 129.96°W
Report Text: CYPR 210459Z AUTO 11012KT 6SM -RA BKN024 OVC032 07/04 A2913 RMK SLP865
Loading
Personal Weather Stations






























Interactive Weather Map New forecast layout! Learn more

10-Day Weather Forecast

Advertisements
Track Severe Weather on mobile